sensor_id;sensor_type;location;lat;lon;timestamp;pressure;altitude;pressure_sealevel;temperature;humidity
70968;BME280;58629;48.808;8.820;2023-01-29T00:01:02;98188.34;;;-0.59;83.79
70968;BME280;58629;48.808;8.820;2023-01-29T00:03:27;98188.84;;;-0.65;83.06
70968;BME280;58629;48.808;8.820;2023-01-29T00:05:53;98183.31;;;-0.64;84.34
70968;BME280;58629;48.808;8.820;2023-01-29T00:08:18;98189.88;;;-0.75;83.35
70968;BME280;58629;48.808;8.820;2023-01-29T00:10:43;98179.78;;;-0.85;84.21
70968;BME280;58629;48.808;8.820;2023-01-29T00:13:08;98173.22;;;-0.91;83.64
70968;BME280;58629;48.808;8.820;2023-01-29T00:15:33;98172.16;;;-0.99;84.11
70968;BME280;58629;48.808;8.820;2023-01-29T00:17:59;98183.47;;;-1.03;83.67
70968;BME280;58629;48.808;8.820;2023-01-29T00:20:24;98178.28;;;-1.03;83.99
70968;BME280;58629;48.808;8.820;2023-01-29T00:22:49;98174.00;;;-0.99;84.83
70968;BME280;58629;48.808;8.820;2023-01-29T00:25:15;98171.56;;;-0.96;84.38
70968;BME280;58629;48.808;8.820;2023-01-29T00:27:40;98172.16;;;-0.99;84.12
70968;BME280;58629;48.808;8.820;2023-01-29T00:30:06;98171.25;;;-0.94;84.92
70968;BME280;58629;48.808;8.820;2023-01-29T00:32:38;98172.16;;;-0.90;85.04
70968;BME280;58629;48.808;8.820;2023-01-29T00:35:04;98168.66;;;-0.85;85.29
70968;BME280;58629;48.808;8.820;2023-01-29T00:37:29;98174.16;;;-0.78;85.85
70968;BME280;58629;48.808;8.820;2023-01-29T00:39:55;98173.09;;;-0.77;86.00
70968;BME280;58629;48.808;8.820;2023-01-29T00:42:20;98170.78;;;-0.79;86.73
70968;BME280;58629;48.808;8.820;2023-01-29T00:45:04;98167.88;;;-0.69;87.55
70968;BME280;58629;48.808;8.820;2023-01-29T00:47:29;98166.50;;;-0.66;87.01
70968;BME280;58629;48.808;8.820;2023-01-29T00:49:55;98170.78;;;-0.62;86.96
70968;BME280;58629;48.808;8.820;2023-01-29T00:52:21;98167.22;;;-0.57;87.83
70968;BME280;58629;48.808;8.820;2023-01-29T00:54:53;98173.06;;;-0.60;87.16
70968;BME280;58629;48.808;8.820;2023-01-29T00:57:19;98172.28;;;-0.61;87.94
70968;BME280;58629;48.808;8.820;2023-01-29T00:59:44;98174.28;;;-0.58;87.56
70968;BME280;58629;48.808;8.820;2023-01-29T01:02:10;98176.13;;;-0.58;87.29
70968;BME280;58629;48.808;8.820;2023-01-29T01:04:54;98180.41;;;-0.54;87.63
70968;BME280;58629;48.808;8.820;2023-01-29T01:07:19;98168.78;;;-0.56;86.93
70968;BME280;58629;48.808;8.820;2023-01-29T01:09:45;98165.53;;;-0.53;86.66
70968;BME280;58629;48.808;8.820;2023-01-29T01:12:29;98176.28;;;-0.55;86.67
70968;BME280;58629;48.808;8.820;2023-01-29T01:14:55;98176.91;;;-0.58;86.74
70968;BME280;58629;48.808;8.820;2023-01-29T01:17:20;98181.31;;;-0.58;86.27
70968;BME280;58629;48.808;8.820;2023-01-29T01:19:46;98176.44;;;-0.60;86.07
70968;BME280;58629;48.808;8.820;2023-01-29T01:22:11;98175.97;;;-0.62;86.33
70968;BME280;58629;48.808;8.820;2023-01-29T01:24:37;98162.97;;;-0.62;86.45
70968;BME280;58629;48.808;8.820;2023-01-29T01:27:02;98158.69;;;-0.58;86.78
70968;BME280;58629;48.808;8.820;2023-01-29T01:29:28;98162.50;;;-0.55;87.21
70968;BME280;58629;48.808;8.820;2023-01-29T01:31:53;98160.66;;;-0.55;87.36
70968;BME280;58629;48.808;8.820;2023-01-29T01:34:18;98175.22;;;-0.54;86.73
70968;BME280;58629;48.808;8.820;2023-01-29T01:36:44;98175.22;;;-0.54;86.05
70968;BME280;58629;48.808;8.820;2023-01-29T01:39:09;98179.19;;;-0.56;85.15
70968;BME280;58629;48.808;8.820;2023-01-29T01:41:35;98179.78;;;-0.51;86.41
70968;BME280;58629;48.808;8.820;2023-01-29T01:44:02;98177.19;;;-0.51;86.89
70968;BME280;58629;48.808;8.820;2023-01-29T01:46:29;98168.59;;;-0.51;86.36
70968;BME280;58629;48.808;8.820;2023-01-29T01:48:59;98165.53;;;-0.53;86.73
70968;BME280;58629;48.808;8.820;2023-01-29T01:51:29;98168.63;;;-0.60;84.86
70968;BME280;58629;48.808;8.820;2023-01-29T01:54:02;98173.97;;;-0.65;84.64
70968;BME280;58629;48.808;8.820;2023-01-29T01:56:32;98169.53;;;-0.64;85.64
70968;BME280;58629;48.808;8.820;2023-01-29T01:59:02;98166.81;;;-0.68;85.63
70968;BME280;58629;48.808;8.820;2023-01-29T02:01:29;98164.34;;;-0.73;85.54
70968;BME280;58629;48.808;8.820;2023-01-29T02:03:59;98156.41;;;-0.68;87.09
70968;BME280;58629;48.808;8.820;2023-01-29T02:06:44;98158.06;;;-0.63;87.19
70968;BME280;58629;48.808;8.820;2023-01-29T02:09:36;98159.16;;;-0.64;87.59
70968;BME280;58629;48.808;8.820;2023-01-29T02:12:06;98159.31;;;-0.69;86.85
70968;BME280;58629;48.808;8.820;2023-01-29T02:14:34;98173.38;;;-0.70;86.86
70968;BME280;58629;48.808;8.820;2023-01-29T02:17:03;98180.56;;;-0.84;85.12
70968;BME280;58629;48.808;8.820;2023-01-29T02:19:36;98180.13;;;-0.78;86.43
70968;BME280;58629;48.808;8.820;2023-01-29T02:30:40;98171.53;;;-0.87;85.66
70968;BME280;58629;48.808;8.820;2023-01-29T02:35:42;98174.75;;;-0.90;83.76
70968;BME280;58629;48.808;8.820;2023-01-29T02:40:45;98168.94;;;-0.87;82.11
70968;BME280;58629;48.808;8.820;2023-01-29T02:43:22;98171.53;;;-0.87;81.03
70968;BME280;58629;48.808;8.820;2023-01-29T02:46:00;98171.53;;;-0.87;80.64
70968;BME280;58629;48.808;8.820;2023-01-29T02:48:37;98170.31;;;-0.81;81.42
70968;BME280;58629;48.808;8.820;2023-01-29T02:51:09;98166.03;;;-0.77;80.78
70968;BME280;58629;48.808;8.820;2023-01-29T02:53:47;98160.53;;;-0.84;78.27
70968;BME280;58629;48.808;8.820;2023-01-29T02:56:23;98156.56;;;-0.99;76.46
70968;BME280;58629;48.808;8.820;2023-01-29T02:58:58;98158.56;;;-0.96;78.64
70968;BME280;58629;48.808;8.820;2023-01-29T03:01:29;98154.88;;;-0.95;80.09
70968;BME280;58629;48.808;8.820;2023-01-29T03:04:02;98156.88;;;-1.00;80.69
70968;BME280;58629;48.808;8.820;2023-01-29T03:06:36;98165.75;;;-1.01;82.07
70968;BME280;58629;48.808;8.820;2023-01-29T03:09:15;98166.81;;;-1.02;81.68
70968;BME280;58629;48.808;8.820;2023-01-29T03:11:48;98175.50;;;-1.07;82.70
70968;BME280;58629;48.808;8.820;2023-01-29T03:14:33;98164.19;;;-1.19;81.62
70968;BME280;58629;48.808;8.820;2023-01-29T03:17:22;98162.66;;;-1.20;80.00
70968;BME280;58629;48.808;8.820;2023-01-29T03:19:48;98166.63;;;-1.14;78.72
70968;BME280;58629;48.808;8.820;2023-01-29T03:22:16;98170.75;;;-1.22;82.03
70968;BME280;58629;48.808;8.820;2023-01-29T03:24:49;98156.41;;;-1.19;82.77
70968;BME280;58629;48.808;8.820;2023-01-29T03:27:45;98163.88;;;-1.18;83.48
70968;BME280;58629;48.808;8.820;2023-01-29T03:30:32;98165.59;;;-1.13;83.65
70968;BME280;58629;48.808;8.820;2023-01-29T03:33:20;98164.34;;;-1.16;83.03
70968;BME280;58629;48.808;8.820;2023-01-29T03:36:22;98162.50;;;-1.07;84.74
70968;BME280;58629;48.808;8.820;2023-01-29T03:38:52;98155.81;;;-0.99;84.30
70968;BME280;58629;48.808;8.820;2023-01-29T03:41:32;98153.34;;;-0.96;85.45
70968;BME280;58629;48.808;8.820;2023-01-29T03:44:16;98158.69;;;-0.92;86.32
70968;BME280;58629;48.808;8.820;2023-01-29T03:46:59;98159.31;;;-0.87;85.11
70968;BME280;58629;48.808;8.820;2023-01-29T03:49:30;98158.72;;;-0.83;85.18
70968;BME280;58629;48.808;8.820;2023-01-29T03:52:05;98162.06;;;-0.83;85.43
70968;BME280;58629;48.808;8.820;2023-01-29T03:58:04;98161.91;;;-0.87;85.41
70968;BME280;58629;48.808;8.820;2023-01-29T04:00:44;98165.75;;;-0.84;85.78
70968;BME280;58629;48.808;8.820;2023-01-29T04:03:19;98158.72;;;-0.83;85.48
70968;BME280;58629;48.808;8.820;2023-01-29T04:05:53;98157.63;;;-0.82;85.41
70968;BME280;58629;48.808;8.820;2023-01-29T04:08:32;98166.66;;;-0.80;84.75
70968;BME280;58629;48.808;8.820;2023-01-29T04:11:03;98162.97;;;-0.79;85.21
70968;BME280;58629;48.808;8.820;2023-01-29T04:13:32;98163.28;;;-0.80;85.77
70968;BME280;58629;48.808;8.820;2023-01-29T04:15:59;98167.72;;;-0.81;85.59
70968;BME280;58629;48.808;8.820;2023-01-29T04:18:25;98158.41;;;-0.82;82.60
70968;BME280;58629;48.808;8.820;2023-01-29T04:20:53;98166.06;;;-0.85;81.21
70968;BME280;58629;48.808;8.820;2023-01-29T04:23:24;98157.63;;;-0.91;81.28
70968;BME280;58629;48.808;8.820;2023-01-29T04:26:16;98162.66;;;-0.95;79.54
70968;BME280;58629;48.808;8.820;2023-01-29T04:28:57;98170.00;;;-0.97;80.53
70968;BME280;58629;48.808;8.820;2023-01-29T04:31:27;98169.25;;;-0.97;81.59
70968;BME280;58629;48.808;8.820;2023-01-29T04:34:22;98168.47;;;-1.06;81.49
70968;BME280;58629;48.808;8.820;2023-01-29T04:37:01;98168.03;;;-1.08;83.62
70968;BME280;58629;48.808;8.820;2023-01-29T04:39:42;98167.69;;;-1.24;84.07
70968;BME280;58629;48.808;8.820;2023-01-29T04:45:02;98157.47;;;-1.29;83.03
70968;BME280;58629;48.808;8.820;2023-01-29T04:47:54;98160.06;;;-1.20;83.92
70968;BME280;58629;48.808;8.820;2023-01-29T04:50:33;98163.56;;;-1.25;81.15
70968;BME280;58629;48.808;8.820;2023-01-29T04:53:27;98161.88;;;-1.21;80.39
70968;BME280;58629;48.808;8.820;2023-01-29T04:56:15;98159.91;;;-1.07;82.34
70968;BME280;58629;48.808;8.820;2023-01-29T04:58:46;98158.41;;;-1.08;80.57
70968;BME280;58629;48.808;8.820;2023-01-29T05:01:18;98159.00;;;-1.11;79.74
70968;BME280;58629;48.808;8.820;2023-01-29T05:03:46;98156.09;;;-1.09;79.93
70968;BME280;58629;48.808;8.820;2023-01-29T05:06:14;98150.91;;;-1.09;80.77
70968;BME280;58629;48.808;8.820;2023-01-29T05:08:41;98156.09;;;-1.09;80.80
70968;BME280;58629;48.808;8.820;2023-01-29T05:11:06;98152.28;;;-1.03;81.06
70968;BME280;58629;48.808;8.820;2023-01-29T05:13:33;98153.50;;;-1.01;82.06
70968;BME280;58629;48.808;8.820;2023-01-29T05:16:04;98155.47;;;-1.06;80.50
70968;BME280;58629;48.808;8.820;2023-01-29T05:18:32;98150.75;;;-1.04;80.87
70968;BME280;58629;48.808;8.820;2023-01-29T05:21:01;98156.56;;;-0.99;81.25
70968;BME280;58629;48.808;8.820;2023-01-29T05:23:28;98160.56;;;-1.01;79.67
70968;BME280;58629;48.808;8.820;2023-01-29T05:25:57;98171.25;;;-1.11;79.65
70968;BME280;58629;48.808;8.820;2023-01-29T05:28:25;98177.91;;;-1.36;81.21
70968;BME280;58629;48.808;8.820;2023-01-29T05:30:51;98178.03;;;-1.49;83.56
70968;BME280;58629;48.808;8.820;2023-01-29T05:33:18;98177.25;;;-1.58;84.04
70968;BME280;58629;48.808;8.820;2023-01-29T05:35:44;98174.78;;;-1.63;84.49
70968;BME280;58629;48.808;8.820;2023-01-29T05:38:12;98167.91;;;-1.68;84.25
70968;BME280;58629;48.808;8.820;2023-01-29T05:40:38;98162.09;;;-1.73;84.35
70968;BME280;58629;48.808;8.820;2023-01-29T05:43:04;98155.06;;;-1.73;82.44
70968;BME280;58629;48.808;8.820;2023-01-29T05:45:31;98149.44;;;-1.66;83.73
70968;BME280;58629;48.808;8.820;2023-01-29T05:47:57;98137.69;;;-1.55;84.90
70968;BME280;58629;48.808;8.820;2023-01-29T05:50:24;98129.78;;;-1.42;86.45
70968;BME280;58629;48.808;8.820;2023-01-29T05:52:56;98122.59;;;-1.36;87.34
70968;BME280;58629;48.808;8.820;2023-01-29T05:55:21;98115.72;;;-1.41;85.18
70968;BME280;58629;48.808;8.820;2023-01-29T05:57:53;98122.31;;;-1.35;84.68
70968;BME280;58629;48.808;8.820;2023-01-29T06:00:19;98137.72;;;-1.30;84.45
70968;BME280;58629;48.808;8.820;2023-01-29T06:02:44;98136.38;;;-1.27;83.16
70968;BME280;58629;48.808;8.820;2023-01-29T06:05:10;98133.59;;;-1.22;82.93
70968;BME280;58629;48.808;8.820;2023-01-29T06:07:35;98127.03;;;-1.20;84.19
70968;BME280;58629;48.808;8.820;2023-01-29T06:10:02;98135.63;;;-1.19;82.70
70968;BME280;58629;48.808;8.820;2023-01-29T06:12:27;98146.00;;;-1.19;83.70
70968;BME280;58629;48.808;8.820;2023-01-29T06:14:52;98139.41;;;-1.17;83.60
70968;BME280;58629;48.808;8.820;2023-01-29T06:17:18;98133.28;;;-1.21;81.75
70968;BME280;58629;48.808;8.820;2023-01-29T06:19:43;98140.34;;;-1.30;82.63
70968;BME280;58629;48.808;8.820;2023-01-29T06:22:08;98153.78;;;-1.45;84.18
70968;BME280;58629;48.808;8.820;2023-01-29T06:24:34;98149.00;;;-1.51;83.91
70968;BME280;58629;48.808;8.820;2023-01-29T06:26:59;98147.31;;;-1.64;85.64
70968;BME280;58629;48.808;8.820;2023-01-29T06:29:24;98152.50;;;-1.64;85.63
70968;BME280;58629;48.808;8.820;2023-01-29T06:31:50;98157.50;;;-1.68;82.99
70968;BME280;58629;48.808;8.820;2023-01-29T06:34:15;98159.06;;;-1.67;83.75
70968;BME280;58629;48.808;8.820;2023-01-29T06:36:42;98158.00;;;-1.57;84.73
70968;BME280;58629;48.808;8.820;2023-01-29T06:39:08;98155.59;;;-1.45;86.48
70968;BME280;58629;48.808;8.820;2023-01-29T06:41:36;98155.63;;;-1.37;86.82
70968;BME280;58629;48.808;8.820;2023-01-29T06:44:03;98159.13;;;-1.41;86.33
70968;BME280;58629;48.808;8.820;2023-01-29T06:46:29;98150.25;;;-1.40;85.54
70968;BME280;58629;48.808;8.820;2023-01-29T06:48:57;98147.66;;;-1.40;85.82
70968;BME280;58629;48.808;8.820;2023-01-29T06:51:22;98144.91;;;-1.35;85.64
70968;BME280;58629;48.808;8.820;2023-01-29T06:53:47;98157.09;;;-1.44;83.29
70968;BME280;58629;48.808;8.820;2023-01-29T06:56:12;98153.31;;;-1.47;84.34
70968;BME280;58629;48.808;8.820;2023-01-29T06:58:38;98156.38;;;-1.45;85.20
70968;BME280;58629;48.808;8.820;2023-01-29T07:01:09;98161.72;;;-1.41;86.36
70968;BME280;58629;48.808;8.820;2023-01-29T07:03:34;98154.84;;;-1.37;85.92
70968;BME280;58629;48.808;8.820;2023-01-29T07:06:00;98153.03;;;-1.37;84.87
70968;BME280;58629;48.808;8.820;2023-01-29T07:08:26;98152.13;;;-1.24;86.17
70968;BME280;58629;48.808;8.820;2023-01-29T07:10:52;98148.75;;;-1.16;85.49
70968;BME280;58629;48.808;8.820;2023-01-29T07:13:18;98144.16;;;-1.10;85.23
70968;BME280;58629;48.808;8.820;2023-01-29T07:15:43;98143.25;;;-1.06;84.67
70968;BME280;58629;48.808;8.820;2023-01-29T07:18:09;98147.84;;;-1.11;83.49
70968;BME280;58629;48.808;8.820;2023-01-29T07:20:39;98144.94;;;-1.10;83.69
70968;BME280;58629;48.808;8.820;2023-01-29T07:23:05;98154.88;;;-1.03;84.19
70968;BME280;58629;48.808;8.820;2023-01-29T07:25:32;98153.03;;;-1.03;83.59
70968;BME280;58629;48.808;8.820;2023-01-29T07:28:03;98164.50;;;-0.95;83.87
70968;BME280;58629;48.808;8.820;2023-01-29T07:30:29;98174.16;;;-0.96;83.11
70968;BME280;58629;48.808;8.820;2023-01-29T07:32:54;98179.22;;;-0.99;81.74
70968;BME280;58629;48.808;8.820;2023-01-29T07:35:19;98172.91;;;-0.98;81.30
70968;BME280;58629;48.808;8.820;2023-01-29T07:37:48;98174.16;;;-0.96;80.90
70968;BME280;58629;48.808;8.820;2023-01-29T07:40:13;98187.91;;;-0.95;80.50
70968;BME280;58629;48.808;8.820;2023-01-29T07:42:39;98181.66;;;-0.94;80.93
70968;BME280;58629;48.808;8.820;2023-01-29T07:45:06;98185.47;;;-0.83;82.43
70968;BME280;58629;48.808;8.820;2023-01-29T07:47:32;98181.81;;;-0.73;82.49
70968;BME280;58629;48.808;8.820;2023-01-29T07:49:57;98184.09;;;-0.72;82.66
70968;BME280;58629;48.808;8.820;2023-01-29T07:52:23;98185.78;;;-0.76;80.69
70968;BME280;58629;48.808;8.820;2023-01-29T07:54:48;98191.44;;;-0.74;81.01
70968;BME280;58629;48.808;8.820;2023-01-29T07:57:15;98197.72;;;-0.83;79.80
70968;BME280;58629;48.808;8.820;2023-01-29T07:59:41;98195.41;;;-0.85;79.36
70968;BME280;58629;48.808;8.820;2023-01-29T08:02:08;98196.31;;;-0.72;80.63
70968;BME280;58629;48.808;8.820;2023-01-29T08:04:33;98199.25;;;-0.65;81.44
70968;BME280;58629;48.808;8.820;2023-01-29T08:06:58;98192.78;;;-0.59;81.35
70968;BME280;58629;48.808;8.820;2023-01-29T08:09:23;98193.25;;;-0.57;80.31
70968;BME280;58629;48.808;8.820;2023-01-29T08:11:49;98198.47;;;-0.66;78.51
70968;BME280;58629;48.808;8.820;2023-01-29T08:14:14;98194.94;;;-0.78;78.24
70968;BME280;58629;48.808;8.820;2023-01-29T08:16:42;98211.94;;;-0.72;79.37
70968;BME280;58629;48.808;8.820;2023-01-29T08:19:07;98215.16;;;-0.84;79.16
70968;BME280;58629;48.808;8.820;2023-01-29T08:21:33;98213.91;;;-0.87;79.09
70968;BME280;58629;48.808;8.820;2023-01-29T08:23:58;98212.56;;;-0.75;79.27
70968;BME280;58629;48.808;8.820;2023-01-29T08:26:25;98211.47;;;-0.74;78.53
70968;BME280;58629;48.808;8.820;2023-01-29T08:28:51;98208.25;;;-0.80;77.67
70968;BME280;58629;48.808;8.820;2023-01-29T08:31:18;98210.56;;;-0.70;79.09
70968;BME280;58629;48.808;8.820;2023-01-29T08:33:46;98210.41;;;-0.65;77.62
70968;BME280;58629;48.808;8.820;2023-01-29T08:36:12;98211.78;;;-0.67;77.43
70968;BME280;58629;48.808;8.820;2023-01-29T08:38:37;98220.19;;;-0.70;77.68
70968;BME280;58629;48.808;8.820;2023-01-29T08:41:03;98224.63;;;-0.79;77.00
70968;BME280;58629;48.808;8.820;2023-01-29T08:43:29;98215.44;;;-0.68;79.06
70968;BME280;58629;48.808;8.820;2023-01-29T08:45:56;98218.97;;;-0.56;79.56
70968;BME280;58629;48.808;8.820;2023-01-29T08:48:22;98224.47;;;-0.49;79.57
70968;BME280;58629;48.808;8.820;2023-01-29T08:50:47;98217.44;;;-0.40;80.23
70968;BME280;58629;48.808;8.820;2023-01-29T08:53:13;98210.38;;;-0.31;79.32
70968;BME280;58629;48.808;8.820;2023-01-29T08:55:39;98208.06;;;-0.24;78.62
70968;BME280;58629;48.808;8.820;2023-01-29T08:58:06;98216.03;;;-0.20;78.12
70968;BME280;58629;48.808;8.820;2023-01-29T09:00:33;98206.81;;;-0.18;78.76
70968;BME280;58629;48.808;8.820;2023-01-29T09:03:03;98207.44;;;-0.12;79.39
70968;BME280;58629;48.808;8.820;2023-01-29T09:05:28;98204.84;;;-0.21;77.61
70968;BME280;58629;48.808;8.820;2023-01-29T09:07:57;98212.66;;;-0.12;78.34
70968;BME280;58629;48.808;8.820;2023-01-29T09:10:22;98216.63;;;-0.15;77.94
70968;BME280;58629;48.808;8.820;2023-01-29T09:12:48;98222.28;;;-0.04;78.02
70968;BME280;58629;48.808;8.820;2023-01-29T09:15:13;98224.69;;;0.10;84.06
70968;BME280;58629;48.808;8.820;2023-01-29T09:17:38;98225.47;;;-0.07;76.39
70968;BME280;58629;48.808;8.820;2023-01-29T09:20:05;98228.88;;;-0.24;74.69
70968;BME280;58629;48.808;8.820;2023-01-29T09:22:31;98229.97;;;-0.33;75.38
70968;BME280;58629;48.808;8.820;2023-01-29T09:24:56;98221.06;;;-0.24;76.45
70968;BME280;58629;48.808;8.820;2023-01-29T09:27:21;98225.66;;;-0.12;78.22
70968;BME280;58629;48.808;8.820;2023-01-29T09:29:47;98223.34;;;-0.05;77.93
70968;BME280;58629;48.808;8.820;2023-01-29T09:32:12;98221.38;;;-0.17;76.58
70968;BME280;58629;48.808;8.820;2023-01-29T09:34:37;98227.31;;;-0.08;77.67
70968;BME280;58629;48.808;8.820;2023-01-29T09:37:03;98228.41;;;0.00;78.75
70968;BME280;58629;48.808;8.820;2023-01-29T09:39:28;98233.81;;;0.24;80.01
70968;BME280;58629;48.808;8.820;2023-01-29T09:47:25;98203.28;;;1.86;93.84
70968;BME280;58629;48.808;8.820;2023-01-29T09:49:58;98196.28;;;2.71;90.97
70968;BME280;58629;48.808;8.820;2023-01-29T09:52:49;98175.88;;;3.56;84.42
70968;BME280;58629;48.808;8.820;2023-01-29T09:55:26;98177.56;;;4.23;80.67
70968;BME280;58629;48.808;8.820;2023-01-29T09:58:02;98169.78;;;4.77;77.52
70968;BME280;58629;48.808;8.820;2023-01-29T10:00:33;98160.50;;;5.17;73.93
70968;BME280;58629;48.808;8.820;2023-01-29T10:05:56;98148.84;;;5.34;70.75
70968;BME280;58629;48.808;8.820;2023-01-29T10:14:27;98146.41;;;5.45;66.37
70968;BME280;58629;48.808;8.820;2023-01-29T10:22:21;98147.78;;;5.99;63.86
70968;BME280;58629;48.808;8.820;2023-01-29T10:24:53;98149.00;;;6.05;63.63
70968;BME280;58629;48.808;8.820;2023-01-29T10:27:21;98152.16;;;6.14;63.02
70968;BME280;58629;48.808;8.820;2023-01-29T10:29:49;98152.19;;;6.18;63.43
70968;BME280;58629;48.808;8.820;2023-01-29T10:32:20;98150.72;;;5.75;59.60
70968;BME280;58629;48.808;8.820;2023-01-29T10:34:52;98161.69;;;5.81;61.58
70968;BME280;58629;48.808;8.820;2023-01-29T10:37:23;98158.81;;;5.86;62.68
70968;BME280;58629;48.808;8.820;2023-01-29T10:39:50;98165.06;;;6.00;62.23
70968;BME280;58629;48.808;8.820;2023-01-29T10:42:25;98162.63;;;5.69;59.94
70968;BME280;58629;48.808;8.820;2023-01-29T10:48:00;98158.25;;;4.47;60.44
70968;BME280;58629;48.808;8.820;2023-01-29T10:50:39;98162.56;;;4.55;60.68
70968;BME280;58629;48.808;8.820;2023-01-29T10:59:21;98170.53;;;3.25;65.00
70968;BME280;58629;48.808;8.820;2023-01-29T11:01:56;98177.56;;;3.09;63.61
70968;BME280;58629;48.808;8.820;2023-01-29T11:04:23;98178.63;;;2.56;64.70
70968;BME280;58629;48.808;8.820;2023-01-29T11:06:49;98173.72;;;2.18;66.37
70968;BME280;58629;48.808;8.820;2023-01-29T11:09:36;98171.75;;;2.03;67.74
70968;BME280;58629;48.808;8.820;2023-01-29T11:12:15;98159.94;;;1.73;69.22
70968;BME280;58629;48.808;8.820;2023-01-29T11:14:47;98162.78;;;1.80;70.67
70968;BME280;58629;48.808;8.820;2023-01-29T11:17:22;98164.81;;;0.88;71.05
70968;BME280;58629;48.808;8.820;2023-01-29T11:19:49;98163.19;;;0.55;73.40
70968;BME280;58629;48.808;8.820;2023-01-29T11:22:19;98163.53;;;0.16;74.87
70968;BME280;58629;48.808;8.820;2023-01-29T11:25:05;98150.34;;;0.12;75.74
70968;BME280;58629;48.808;8.820;2023-01-29T11:27:32;98137.75;;;0.23;76.45
70968;BME280;58629;48.808;8.820;2023-01-29T11:29:59;98134.66;;;0.00;75.60
70968;BME280;58629;48.808;8.820;2023-01-29T11:32:27;98121.34;;;-0.07;78.73
70968;BME280;58629;48.808;8.820;2023-01-29T11:37:40;98136.50;;;-0.09;79.36
70968;BME280;58629;48.808;8.820;2023-01-29T11:42:44;98131.31;;;-0.09;77.52
70968;BME280;58629;48.808;8.820;2023-01-29T11:47:51;98132.09;;;-0.17;79.84
70968;BME280;58629;48.808;8.820;2023-01-29T11:50:25;98128.88;;;-0.14;77.69
70968;BME280;58629;48.808;8.820;2023-01-29T11:52:53;98114.78;;;-0.13;75.89
70968;BME280;58629;48.808;8.820;2023-01-29T11:55:20;98116.88;;;0.31;79.52
70968;BME280;58629;48.808;8.820;2023-01-29T11:57:50;98108.47;;;0.75;76.65
70968;BME280;58629;48.808;8.820;2023-01-29T12:00:22;98102.19;;;1.30;80.96
70968;BME280;58629;48.808;8.820;2023-01-29T12:05:37;98104.25;;;2.29;77.74
70968;BME280;58629;48.808;8.820;2023-01-29T12:08:03;98095.28;;;2.54;76.16
70968;BME280;58629;48.808;8.820;2023-01-29T12:10:40;98094.97;;;2.32;71.20
70968;BME280;58629;48.808;8.820;2023-01-29T12:15:40;98085.53;;;2.39;70.77
70968;BME280;58629;48.808;8.820;2023-01-29T12:20:54;98063.13;;;1.90;72.10
70968;BME280;58629;48.808;8.820;2023-01-29T12:26:50;98047.66;;;1.73;77.46
70968;BME280;58629;48.808;8.820;2023-01-29T12:29:17;98043.72;;;2.39;76.78
70968;BME280;58629;48.808;8.820;2023-01-29T12:31:58;98038.03;;;2.49;69.76
70968;BME280;58629;48.808;8.820;2023-01-29T12:34:36;98028.84;;;3.11;73.45
70968;BME280;58629;48.808;8.820;2023-01-29T12:37:26;98027.16;;;3.18;68.14
70968;BME280;58629;48.808;8.820;2023-01-29T12:39:54;98029.44;;;2.77;67.34
70968;BME280;58629;48.808;8.820;2023-01-29T12:42:21;98023.66;;;2.99;71.14
70968;BME280;58629;48.808;8.820;2023-01-29T12:47:30;98013.16;;;2.83;69.12
70968;BME280;58629;48.808;8.820;2023-01-29T12:50:02;98007.69;;;2.88;70.22
70968;BME280;58629;48.808;8.820;2023-01-29T12:55:28;98013.94;;;1.44;71.68
70968;BME280;58629;48.808;8.820;2023-01-29T12:58:07;98002.91;;;0.81;74.98
70968;BME280;58629;48.808;8.820;2023-01-29T13:00:37;97995.47;;;1.04;78.32
70968;BME280;58629;48.808;8.820;2023-01-29T13:05:38;97987.09;;;0.99;76.28
70968;BME280;58629;48.808;8.820;2023-01-29T13:08:08;97990.25;;;1.04;75.75
70968;BME280;58629;48.808;8.820;2023-01-29T13:10:42;97985.06;;;1.16;77.30
70968;BME280;58629;48.808;8.820;2023-01-29T13:15:42;97991.03;;;0.72;78.20
70968;BME280;58629;48.808;8.820;2023-01-29T13:18:19;97979.72;;;0.68;77.85
70968;BME280;58629;48.808;8.820;2023-01-29T13:20:48;97968.69;;;0.50;78.53
70968;BME280;58629;48.808;8.820;2023-01-29T13:23:23;97969.34;;;0.80;77.34
70968;BME280;58629;48.808;8.820;2023-01-29T13:25:55;97973.34;;;0.77;77.39
70968;BME280;58629;48.808;8.820;2023-01-29T13:28:22;97976.41;;;0.92;77.65
70968;BME280;58629;48.808;8.820;2023-01-29T13:31:08;97982.19;;;0.97;77.84
70968;BME280;58629;48.808;8.820;2023-01-29T13:33:35;97986.56;;;1.05;76.58
70968;BME280;58629;48.808;8.820;2023-01-29T13:36:02;97980.78;;;1.00;75.66
70968;BME280;58629;48.808;8.820;2023-01-29T13:38:29;97986.69;;;0.76;75.87
70968;BME280;58629;48.808;8.820;2023-01-29T13:41:02;97998.00;;;0.47;77.26
70968;BME280;58629;48.808;8.820;2023-01-29T13:43:34;97991.97;;;0.35;78.42
70968;BME280;58629;48.808;8.820;2023-01-29T13:46:07;98002.88;;;0.28;79.66
70968;BME280;58629;48.808;8.820;2023-01-29T13:48:40;97996.66;;;0.21;78.69
70968;BME280;58629;48.808;8.820;2023-01-29T13:51:10;97996.00;;;0.03;80.35
70968;BME280;58629;48.808;8.820;2023-01-29T13:53:53;97995.13;;;-0.01;80.34
70968;BME280;58629;48.808;8.820;2023-01-29T13:58:58;97999.25;;;0.21;80.22
70968;BME280;58629;48.808;8.820;2023-01-29T14:04:25;97985.50;;;0.73;79.76
70968;BME280;58629;48.808;8.820;2023-01-29T14:06:59;97989.63;;;0.74;77.52
70968;BME280;58629;48.808;8.820;2023-01-29T14:17:17;97987.72;;;0.96;76.40
70968;BME280;58629;48.808;8.820;2023-01-29T14:19:51;97983.31;;;1.08;74.00
70968;BME280;58629;48.808;8.820;2023-01-29T14:22:22;97984.38;;;1.07;73.60
70968;BME280;58629;48.808;8.820;2023-01-29T14:24:49;97974.19;;;1.14;76.30
70968;BME280;58629;48.808;8.820;2023-01-29T14:27:19;97974.28;;;1.06;75.12
70968;BME280;58629;48.808;8.820;2023-01-29T14:29:46;97971.16;;;1.12;79.94
70968;BME280;58629;48.808;8.820;2023-01-29T14:32:17;97973.03;;;1.36;80.63
70968;BME280;58629;48.808;8.820;2023-01-29T14:34:49;97967.50;;;1.49;80.57
70968;BME280;58629;48.808;8.820;2023-01-29T14:43:04;97969.66;;;1.47;74.00
70968;BME280;58629;48.808;8.820;2023-01-29T14:45:38;97965.09;;;1.32;76.74
70968;BME280;58629;48.808;8.820;2023-01-29T14:53:09;97975.13;;;1.54;79.58
70968;BME280;58629;48.808;8.820;2023-01-29T14:58:18;97972.56;;;1.22;74.78
70968;BME280;58629;48.808;8.820;2023-01-29T15:00:50;97972.69;;;1.25;77.82
70968;BME280;58629;48.808;8.820;2023-01-29T15:03:42;97973.16;;;1.63;80.19